Durango, CO

2:18 AM MDT on August 20, 2014 (GMT -0600)
Every Green Valley | Change Station
CLOSE
Current Station
Personal Weather Station
Location: Durango, CO
Elevation: 6821 ft
Nearby Weather Stations
Active Advisory: Special Statement

Elev 6821 ft 37.28 °N, 107.90 °W | Updated 16 seconds ago

Overcast
Overcast
60.1 °F
Feels Like 60.1 °F
N
0.0
Wind Variable Wind from NE
Gusts 0.0 mph

Today
High -- | Low -- °F
--% Chance of Precip.
Yesterday
High -- | Low -- °F
Precip. -- in
6:31 AM 7:56 PM
Waning Crescent, 23% visible
Pressure 29.84 in
Visibility 10.0 miles
Clouds Few 4500 ft
Overcast 5500 ft
Dew Point 41 °F
Humidity 50%
Rainfall -999.00 in
Snow Depth Not available.
UV 0 out of 12
Pollen 6.60 out of 12
Air Quality Not available.
Flu Activity Not available.
METAR KDRO 200753Z AUTO 08005KT 10SM FEW045 OVC055 16/11 A3011 RMK AO2 SLP104 T01560106

More Conditions Fewer Conditions

Pressure 29.84 in
Visibility 10.0 miles
Clouds Few 4500 ft
Overcast 5500 ft
Dew Point 41 °F
Humidity 50%
Rainfall -999.00 in
Snow Depth Not available.
UV 0 out of 12
Pollen 6.60 out of 12
Air Quality Not available.
Flu Activity Not available.
METAR KDRO 200753Z AUTO 08005KT 10SM FEW045 OVC055 16/11 A3011 RMK AO2 SLP104 T01560106

More Conditions Fewer Conditions

10-Day Weather Forecast

Almanac

Astronomy

Aug. 20, 2014 Rise Set
Actual Time 6:31 AM MDT 7:56 PM MDT
Civil Twilight 6:04 AM MDT 8:24 PM MDT
Nautical Twilight 5:31 AM MDT 8:56 PM MDT
Astronomical Twilight 4:57 AM MDT 9:31 PM MDT
Moon 2:16 AM MDT 4:41 PM MDT
Length of Visible Light 14h 19m
Length of Day
13h 24m
Tomorrow will be 2m 10s shorter.
Waning Crescent, 23% of the Moon is Illuminated
Today
Waning Crescent
Aug 25
New
Sep 2
First Quarter
Sep 8
Full
Sep 15
Last Quarter

Today's Extremes

State Highs State Lows

Community

WunderPhotos

Upload Photos

1,745,601 photos uploaded!

Nearby

Snow Depth

Station Depth Elevation
Columbus Basin 0 in 10785 ft
Sharkstooth 0 in 10720 ft
Vallecito 0 in 10880 ft
Cascade 0 in 8880 ft
Cascade #2 0 in 8920 ft

Earthquake Activity

City Distance Mag. Time & Date
No recent earthquake activity has been reported nearby.
Minimum magnitude displayed is 2.5.

Coastal Water Temperatures

Place Temperature
No Stations Reporting

Nearby Weather Stations